Time;durP1;ratioP1;P1;durP2;ratioP2;P2;SDS_P1;SDS_P2;PMS_P1;PMS_P2;Temp;Humidity;BMP_temperature;BMP_pressure;BME280_temperature;BME280_humidity;BME280_pressure;Samples;Min_cycle;Max_cycle;Signal;HPM_P1;HPM_P2
2021/09/29 00:00:21;;;;;;;2.07;1.40;;;;;;;12.43;100.00;101620.00;5013014;28;20436;-71
2021/09/29 00:02:48;;;;;;;3.50;1.90;;;;;;;12.42;100.00;101612.97;5012996;28;20468;-71
2021/09/29 00:05:15;;;;;;;1.97;1.40;;;;;;;12.43;100.00;101607.22;5012785;28;20942;-70
2021/09/29 00:07:41;;;;;;;1.50;1.40;;;;;;;12.44;100.00;101605.31;5012760;28;20817;-70
2021/09/29 00:10:10;;;;;;;2.50;1.67;;;;;;;12.46;100.00;101612.09;5013083;28;20451;-71
2021/09/29 00:12:37;;;;;;;1.50;1.40;;;;;;;12.48;100.00;101607.16;5012630;28;20985;-71
2021/09/29 00:15:09;;;;;;;3.13;2.03;;;;;;;12.49;100.00;101605.28;5012630;28;20447;-70
2021/09/29 00:17:36;;;;;;;1.80;1.63;;;;;;;12.49;100.00;101595.22;5013049;28;20523;-70
2021/09/29 00:20:04;;;;;;;3.07;2.10;;;;;;;12.48;100.00;101593.59;5012985;28;20444;-70
2021/09/29 00:22:30;;;;;;;2.37;1.60;;;;;;;12.52;100.00;101608.22;5012418;28;21032;-70
2021/09/29 00:24:57;;;;;;;3.17;1.60;;;;;;;12.54;100.00;101599.78;5012909;28;20921;-68
2021/09/29 00:27:25;;;;;;;2.47;1.83;;;;;;;12.44;100.00;101597.16;5012923;28;20447;-69
2021/09/29 00:29:54;;;;;;;3.10;2.00;;;;;;;12.31;100.00;101588.63;5012758;28;20491;-70
2021/09/29 00:32:20;;;;;;;2.30;1.50;;;;;;;12.21;100.00;101577.84;5015314;28;20471;-70
2021/09/29 00:34:47;;;;;;;2.53;1.37;;;;;;;12.19;100.00;101574.63;5016304;28;20451;-69
2021/09/29 00:37:13;;;;;;;3.90;2.57;;;;;;;12.14;100.00;101579.31;5016294;28;20447;-71
2021/09/29 00:39:40;;;;;;;2.80;1.93;;;;;;;12.10;100.00;101570.91;5016528;28;20436;-70
2021/09/29 00:42:07;;;;;;;5.17;1.90;;;;;;;12.11;100.00;101576.03;5015843;28;20467;-71
2021/09/29 00:44:35;;;;;;;4.50;2.20;;;;;;;12.14;100.00;101576.59;5015845;28;20960;-71
2021/09/29 00:47:01;;;;;;;2.20;2.00;;;;;;;12.14;100.00;101569.25;5016367;28;20447;-71
2021/09/29 00:49:28;;;;;;;1.73;1.20;;;;;;;12.22;100.00;101571.34;5016098;28;20479;-71
2021/09/29 00:51:56;;;;;;;2.70;2.23;;;;;;;12.27;100.00;101565.84;5015975;28;20464;-71
2021/09/29 00:54:27;;;;;;;2.57;1.50;;;;;;;12.27;100.00;101562.31;5016041;28;20455;-71
2021/09/29 00:56:53;;;;;;;4.17;1.80;;;;;;;12.28;100.00;101555.78;5016029;28;20523;-71
2021/09/29 00:59:20;;;;;;;3.67;1.80;;;;;;;12.20;100.00;101557.22;5026567;28;20459;-72
2021/09/29 01:01:48;;;;;;;1.67;1.43;;;;;;;12.27;100.00;101554.97;5035545;28;20462;-71
2021/09/29 01:04:15;;;;;;;4.87;2.53;;;;;;;12.27;100.00;101548.75;5035627;28;20443;-71
2021/09/29 01:06:46;;;;;;;3.83;1.80;;;;;;;12.26;100.00;101552.53;5035575;28;20455;-71
2021/09/29 01:09:17;;;;;;;2.10;1.83;;;;;;;12.25;100.00;101540.84;5035256;28;20851;-71
2021/09/29 01:11:50;;;;;;;2.27;1.97;;;;;;;12.23;100.00;101547.69;5035383;28;20544;-71
2021/09/29 01:14:25;;;;;;;1.53;1.43;;;;;;;12.23;100.00;101542.25;5035520;28;20423;-71
2021/09/29 01:16:57;;;;;;;2.70;2.07;;;;;;;12.24;100.00;101535.72;5035381;28;20434;-69
2021/09/29 01:19:38;;;;;;;2.00;1.83;;;;;;;12.15;100.00;101524.69;5035385;28;20445;-69
2021/09/29 01:22:13;;;;;;;3.37;2.17;;;;;;;12.03;100.00;101529.69;5035134;28;21046;-69
2021/09/29 01:24:47;;;;;;;2.30;2.07;;;;;;;11.92;100.00;101525.47;5034314;28;20983;-69
2021/09/29 01:27:16;;;;;;;1.60;1.03;;;;;;;11.94;100.00;101526.78;5034878;28;20811;-69
2021/09/29 01:29:43;;;;;;;2.30;2.10;;;;;;;11.80;100.00;101523.09;5035041;28;20487;-69
2021/09/29 01:32:10;;;;;;;2.97;2.37;;;;;;;11.76;100.00;101524.78;5035027;28;20471;-69
2021/09/29 01:34:36;;;;;;;1.80;1.40;;;;;;;11.64;100.00;101525.13;5035023;28;20439;-69
2021/09/29 01:37:05;;;;;;;1.93;1.63;;;;;;;11.63;100.00;101513.47;5035036;28;20450;-69
2021/09/29 01:39:33;;;;;;;3.43;2.10;;;;;;;11.66;100.00;101512.09;5034932;28;20465;-69
2021/09/29 01:41:59;;;;;;;5.17;1.33;;;;;;;11.66;100.00;101509.41;5034748;28;20470;-69
2021/09/29 01:44:27;;;;;;;3.00;2.40;;;;;;;11.67;100.00;101510.19;5034768;28;20443;-69
2021/09/29 01:46:54;;;;;;;3.77;2.20;;;;;;;11.69;100.00;101510.75;5034801;28;20447;-69
2021/09/29 01:49:25;;;;;;;3.07;1.97;;;;;;;11.79;100.00;101514.16;5034747;28;20490;-69
2021/09/29 01:51:52;;;;;;;1.90;1.70;;;;;;;11.84;100.00;101516.03;5034334;28;20972;-69
2021/09/29 01:54:24;;;;;;;2.43;2.07;;;;;;;11.81;100.00;101501.09;5034712;28;20490;-69
2021/09/29 01:56:51;;;;;;;2.13;1.67;;;;;;;11.78;100.00;101498.97;5034378;28;20434;-71
2021/09/29 01:59:18;;;;;;;8.00;2.30;;;;;;;11.75;100.00;101498.72;5034649;28;20435;-71
2021/09/29 02:01:46;;;;;;;2.10;1.77;;;;;;;11.74;100.00;101492.50;5034491;28;20456;-70
2021/09/29 02:04:13;;;;;;;2.60;2.10;;;;;;;11.76;100.00;101492.19;5033563;28;20952;-70
2021/09/29 02:06:45;;;;;;;1.80;1.37;;;;;;;11.80;100.00;101496.75;5034335;28;20439;-70
2021/09/29 02:09:11;;;;;;;3.73;2.27;;;;;;;11.85;100.00;101491.31;5034363;28;20479;-70
2021/09/29 02:11:38;;;;;;;7.47;1.83;;;;;;;11.83;100.00;101485.38;5034567;28;20466;-70
2021/09/29 02:14:05;;;;;;;2.67;1.60;;;;;;;11.81;100.00;101486.72;5034002;28;20446;-70
2021/09/29 02:16:32;;;;;;;3.23;1.70;;;;;;;11.80;100.00;101490.53;5034303;28;20514;-70
2021/09/29 02:19:00;;;;;;;3.30;2.60;;;;;;;11.74;100.00;101480.84;5034197;28;20439;-70
2021/09/29 02:21:26;;;;;;;3.63;1.80;;;;;;;11.62;100.00;101486.63;5034010;28;20482;-70
2021/09/29 02:23:53;;;;;;;4.23;1.80;;;;;;;11.55;100.00;101484.25;5034273;28;20431;-70
2021/09/29 02:26:19;;;;;;;2.47;1.70;;;;;;;11.52;100.00;101478.59;5034000;28;20447;-70
2021/09/29 02:28:46;;;;;;;1.83;1.27;;;;;;;11.49;100.00;101479.97;5033975;28;20483;-70
2021/09/29 02:31:12;;;;;;;7.03;2.40;;;;;;;11.46;99.71;101485.94;5033629;28;20442;-71
2021/09/29 02:33:39;;;;;;;1.70;1.43;;;;;;;11.47;99.68;101476.75;5033942;28;20613;-70
2021/09/29 02:36:07;;;;;;;1.73;1.50;;;;;;;11.55;100.00;101465.28;5032980;28;20450;-70
2021/09/29 02:38:33;;;;;;;2.10;1.87;;;;;;;11.47;100.00;101470.50;5034854;28;20971;-70
2021/09/29 02:41:00;;;;;;;4.80;2.13;;;;;;;11.47;100.00;101470.50;5033813;28;20439;-70
2021/09/29 02:43:27;;;;;;;3.40;1.80;;;;;;;11.57;100.00;101475.81;5033703;28;20467;-70
2021/09/29 02:45:53;;;;;;;2.97;1.60;;;;;;;11.65;100.00;101461.66;5033756;28;20455;-70
2021/09/29 02:48:20;;;;;;;2.20;1.57;;;;;;;11.83;100.00;101474.53;5033620;28;20498;-70
2021/09/29 02:50:46;;;;;;;2.80;1.30;;;;;;;11.83;100.00;101463.66;5033691;28;20450;-70
2021/09/29 02:53:14;;;;;;;4.37;3.17;;;;;;;11.84;100.00;101465.28;5033470;28;20463;-70
2021/09/29 02:55:40;;;;;;;4.87;2.33;;;;;;;11.93;100.00;101464.66;5033230;28;20443;-70
2021/09/29 02:58:09;;;;;;;1.87;1.53;;;;;;;12.08;100.00;101461.75;5033821;28;20443;-71
2021/09/29 03:00:35;;;;;;;2.67;1.87;;;;;;;12.09;100.00;101457.94;5033483;28;20881;-71
2021/09/29 03:03:02;;;;;;;2.53;1.73;;;;;;;12.10;100.00;101462.28;5033446;28;20467;-71
2021/09/29 03:05:29;;;;;;;6.07;2.83;;;;;;;12.33;100.00;101460.63;5033445;28;20447;-70
2021/09/29 03:07:55;;;;;;;3.10;2.23;;;;;;;12.38;100.00;101450.50;5033383;28;20454;-71
2021/09/29 03:10:23;;;;;;;3.10;2.57;;;;;;;12.42;100.00;101455.38;5033310;28;20501;-70
2021/09/29 03:12:49;;;;;;;1.90;1.80;;;;;;;12.40;100.00;101452.94;5033259;28;20470;-70
2021/09/29 03:15:16;;;;;;;3.17;2.23;;;;;;;12.45;100.00;101442.00;5033410;28;20526;-70
2021/09/29 03:17:43;;;;;;;3.37;2.63;;;;;;;12.58;100.00;101445.91;5032982;28;21028;-70
2021/09/29 03:20:10;;;;;;;4.17;2.50;;;;;;;12.57;100.00;101449.72;5033486;28;20443;-70
2021/09/29 03:22:36;;;;;;;2.13;1.70;;;;;;;12.59;100.00;101450.25;5033025;28;20475;-70
2021/09/29 03:25:03;;;;;;;14.70;2.60;;;;;;;12.64;100.00;101436.56;5033178;28;20442;-70
2021/09/29 03:27:31;;;;;;;5.43;2.53;;;;;;;12.69;100.00;101435.69;5033112;28;20443;-70
2021/09/29 03:29:57;;;;;;;5.73;4.10;;;;;;;12.69;100.00;101441.94;5033101;28;20483;-70
2021/09/29 03:32:24;;;;;;;3.87;2.20;;;;;;;12.66;100.00;101434.38;5033122;28;20459;-70
2021/09/29 03:34:50;;;;;;;1.93;1.50;;;;;;;12.76;100.00;101425.28;5033097;28;20458;-70
2021/09/29 03:37:17;;;;;;;4.60;2.47;;;;;;;12.86;100.00;101425.09;5033138;28;20443;-70
2021/09/29 03:39:43;;;;;;;4.17;2.50;;;;;;;12.97;100.00;101425.75;5033055;28;20443;-70
2021/09/29 03:42:10;;;;;;;3.67;2.13;;;;;;;12.90;100.00;101415.25;5032982;28;20470;-70
2021/09/29 03:44:38;;;;;;;4.37;2.10;;;;;;;13.02;100.00;101418.34;5032429;28;20461;-70
2021/09/29 03:47:04;;;;;;;3.70;2.30;;;;;;;13.08;100.00;101410.88;5032927;28;20439;-70
2021/09/29 03:49:31;;;;;;;2.83;1.80;;;;;;;13.18;100.00;101412.63;5032922;28;20482;-70
2021/09/29 03:51:57;;;;;;;2.80;1.77;;;;;;;13.24;100.00;101412.28;5032906;28;20466;-70
2021/09/29 03:54:24;;;;;;;2.50;1.67;;;;;;;13.32;100.00;101406.13;5032899;28;20477;-70
2021/09/29 03:56:50;;;;;;;4.97;2.70;;;;;;;13.38;100.00;101406.88;5032898;28;20439;-70
2021/09/29 03:59:16;;;;;;;4.10;2.63;;;;;;;13.38;100.00;101404.97;5032914;28;20439;-70
2021/09/29 04:01:46;;;;;;;6.10;3.23;;;;;;;13.41;100.00;101400.00;5032813;28;20474;-70
2021/09/29 04:04:12;;;;;;;8.40;3.27;;;;;;;13.48;100.00;101400.44;5032844;28;20475;-70
2021/09/29 04:06:39;;;;;;;7.90;3.43;;;;;;;13.54;100.00;101391.84;5034729;28;20443;-70
2021/09/29 04:09:05;;;;;;;7.87;2.50;;;;;;;13.62;100.00;101393.88;5036602;28;20483;-71
2021/09/29 04:11:33;;;;;;;14.47;3.40;;;;;;;13.72;100.00;101398.31;5036263;28;20459;-71
2021/09/29 04:13:59;;;;;;;7.10;3.43;;;;;;;13.77;100.00;101390.09;5036536;28;20447;-71
2021/09/29 04:16:26;;;;;;;4.30;2.67;;;;;;;13.83;100.00;101386.13;5036774;28;20442;-71
2021/09/29 04:18:54;;;;;;;4.93;2.73;;;;;;;13.86;100.00;101388.25;5036177;28;20454;-71
2021/09/29 04:21:21;;;;;;;6.00;3.13;;;;;;;13.94;100.00;101394.09;5036024;28;20447;-71
2021/09/29 04:23:47;;;;;;;10.47;4.50;;;;;;;13.97;100.00;101388.03;5036420;28;20497;-71
2021/09/29 04:26:14;;;;;;;6.90;3.13;;;;;;;14.01;100.00;101378.97;5036312;28;20446;-71
2021/09/29 04:28:40;;;;;;;10.30;3.70;;;;;;;14.07;100.00;101380.47;5036281;28;20439;-71
2021/09/29 04:31:07;;;;;;;15.93;5.80;;;;;;;14.15;100.00;101376.22;5036057;28;20487;-72
2021/09/29 04:33:33;;;;;;;12.07;3.37;;;;;;;14.23;100.00;101382.88;5035911;28;20933;-71
2021/09/29 04:36:01;;;;;;;8.30;4.20;;;;;;;14.26;100.00;101374.09;5035893;28;20944;-71
2021/09/29 04:38:28;;;;;;;12.80;5.00;;;;;;;14.31;100.00;101374.78;5035768;28;20792;-71
2021/09/29 04:40:54;;;;;;;10.83;5.30;;;;;;;14.36;100.00;101371.94;5035823;28;20449;-71
2021/09/29 04:43:21;;;;;;;10.60;4.43;;;;;;;14.41;100.00;101372.94;5035691;28;20470;-71
2021/09/29 04:45:48;;;;;;;10.93;4.43;;;;;;;14.49;100.00;101377.69;5035677;28;20450;-71
2021/09/29 04:48:15;;;;;;;9.90;3.70;;;;;;;14.53;100.00;101368.59;5035684;28;20442;-72
2021/09/29 04:50:42;;;;;;;16.37;5.87;;;;;;;14.56;100.00;101373.41;5035659;28;20502;-72
2021/09/29 04:53:10;;;;;;;18.40;6.00;;;;;;;14.61;100.00;101367.06;5035772;28;20835;-72
2021/09/29 04:55:36;;;;;;;6.70;4.30;;;;;;;14.64;100.00;101364.50;5035471;28;20454;-71
2021/09/29 04:58:03;;;;;;;21.50;5.83;;;;;;;14.69;100.00;101365.50;5035752;28;20443;-71
2021/09/29 05:00:30;;;;;;;11.63;4.30;;;;;;;14.70;100.00;101370.66;5035560;28;20446;-71
2021/09/29 05:02:59;;;;;;;21.90;7.07;;;;;;;14.74;100.00;101358.00;5035428;28;20470;-71
2021/09/29 05:05:25;;;;;;;18.63;7.33;;;;;;;14.72;100.00;101356.69;5035569;28;20435;-71
2021/09/29 05:07:53;;;;;;;8.70;4.37;;;;;;;14.78;100.00;101352.72;5035606;28;20435;-71
2021/09/29 05:10:30;;;;;;;17.70;6.07;;;;;;;14.84;100.00;101357.75;5035780;28;20490;-71
2021/09/29 05:12:59;;;;;;;16.60;4.80;;;;;;;14.85;100.00;101353.91;5035675;28;20462;-71
2021/09/29 05:15:25;;;;;;;11.07;4.77;;;;;;;14.88;100.00;101349.75;5035291;28;20450;-71
2021/09/29 05:17:52;;;;;;;10.97;4.57;;;;;;;14.87;100.00;101343.50;5034937;28;20546;-71
2021/09/29 05:20:18;;;;;;;15.17;5.27;;;;;;;14.89;100.00;101348.63;5035337;28;20439;-71
2021/09/29 05:22:45;;;;;;;12.70;6.27;;;;;;;14.89;100.00;101349.44;5035094;28;20482;-71
2021/09/29 05:25:12;;;;;;;15.63;5.53;;;;;;;14.89;100.00;101345.91;5035171;28;20450;-71
2021/09/29 05:27:39;;;;;;;11.70;4.40;;;;;;;14.85;100.00;101345.72;5035459;28;20450;-71
2021/09/29 05:30:07;;;;;;;20.00;5.97;;;;;;;14.79;100.00;101349.69;5035104;28;20479;-70
2021/09/29 05:32:33;;;;;;;24.63;6.13;;;;;;;14.74;100.00;101341.66;5035061;28;20494;-71
2021/09/29 05:35:00;;;;;;;26.50;8.00;;;;;;;14.77;100.00;101346.47;5034778;28;20978;-71
2021/09/29 05:37:26;;;;;;;15.80;4.73;;;;;;;14.81;100.00;101347.44;5034703;28;20812;-71
2021/09/29 05:39:53;;;;;;;14.97;6.27;;;;;;;14.84;100.00;101346.84;5034996;28;20439;-71
2021/09/29 05:42:19;;;;;;;15.90;5.53;;;;;;;14.89;100.00;101349.44;5034862;28;20467;-71
2021/09/29 05:44:47;;;;;;;20.50;6.00;;;;;;;14.97;100.00;101342.44;5034862;28;20450;-71
2021/09/29 05:47:13;;;;;;;7.40;4.30;;;;;;;14.97;100.00;101345.16;5034830;28;20443;-72
2021/09/29 05:49:40;;;;;;;10.33;4.90;;;;;;;14.98;100.00;101332.31;5034972;28;20490;-71
2021/09/29 05:52:07;;;;;;;16.57;6.13;;;;;;;15.04;100.00;101329.13;5034590;28;20463;-71
2021/09/29 05:54:34;;;;;;;19.80;6.37;;;;;;;15.06;100.00;101323.38;5034692;28;20450;-72
2021/09/29 05:57:01;;;;;;;17.83;6.87;;;;;;;15.07;100.00;101323.06;5034672;28;20470;-71
2021/09/29 05:59:27;;;;;;;20.33;5.67;;;;;;;15.08;100.00;101321.13;5034537;28;20439;-69
2021/09/29 06:01:55;;;;;;;14.63;5.60;;;;;;;15.08;100.00;101323.88;5034193;28;20459;-71
2021/09/29 06:04:21;;;;;;;14.27;6.33;;;;;;;15.17;100.00;101318.44;5034505;28;20830;-70
2021/09/29 06:06:48;;;;;;;11.00;4.80;;;;;;;15.22;100.00;101315.56;5034434;28;20454;-70
2021/09/29 06:09:14;;;;;;;14.77;5.20;;;;;;;15.27;100.00;101319.00;5034363;28;20469;-70
2021/09/29 06:11:41;;;;;;;28.60;7.00;;;;;;;15.28;100.00;101304.22;5034192;28;21124;-70
2021/09/29 06:14:09;;;;;;;13.40;5.03;;;;;;;15.33;100.00;101304.06;5034277;28;20443;-70
2021/09/29 06:16:41;;;;;;;16.37;6.57;;;;;;;15.39;100.00;101302.81;5034080;28;20443;-70
2021/09/29 06:19:10;;;;;;;19.20;5.97;;;;;;;15.43;100.00;101300.25;5034198;28;20517;-70
2021/09/29 06:21:37;;;;;;;17.63;5.63;;;;;;;15.49;100.00;101306.38;5033853;28;20505;-70
2021/09/29 06:24:04;;;;;;;9.23;3.40;;;;;;;15.50;100.00;101295.16;5033808;28;20963;-70
2021/09/29 06:26:30;;;;;;;19.87;5.27;;;;;;;15.54;100.00;101298.06;5033716;28;20937;-69
2021/09/29 06:28:58;;;;;;;20.30;6.40;;;;;;;15.56;100.00;101290.34;5033472;28;20450;-70
2021/09/29 06:31:26;;;;;;;16.90;4.40;;;;;;;15.56;100.00;101293.88;5033812;28;20482;-70
2021/09/29 06:33:52;;;;;;;20.60;6.10;;;;;;;15.60;100.00;101303.03;5033919;28;20872;-69
2021/09/29 06:36:20;;;;;;;14.43;5.20;;;;;;;15.63;100.00;101301.63;5033915;28;20450;-70
2021/09/29 06:38:47;;;;;;;14.23;5.40;;;;;;;15.64;100.00;101303.25;5033872;28;20439;-70
2021/09/29 06:41:13;;;;;;;19.70;4.73;;;;;;;15.65;100.00;101299.38;5033743;28;20454;-69
2021/09/29 06:43:40;;;;;;;13.07;5.87;;;;;;;15.67;100.00;101297.16;5033728;28;20458;-70
2021/09/29 06:46:06;;;;;;;19.30;6.27;;;;;;;15.69;100.00;101278.50;5033759;28;20443;-69
2021/09/29 06:48:33;;;;;;;16.90;6.37;;;;;;;15.72;100.00;101282.53;5033674;28;20466;-69
2021/09/29 06:50:59;;;;;;;12.90;5.00;;;;;;;15.75;100.00;101288.16;5033602;28;20482;-70
2021/09/29 06:53:27;;;;;;;20.60;5.67;;;;;;;15.79;100.00;101286.41;5033552;28;20459;-70
2021/09/29 06:55:53;;;;;;;17.23;6.87;;;;;;;15.83;100.00;101281.91;5033557;28;20439;-70
2021/09/29 06:58:21;;;;;;;21.80;6.20;;;;;;;15.86;100.00;101273.09;5033530;28;20450;-69
2021/09/29 07:00:47;;;;;;;18.70;6.60;;;;;;;15.86;100.00;101267.63;5033418;28;20493;-70
2021/09/29 07:03:14;;;;;;;20.20;6.27;;;;;;;15.91;100.00;101253.00;5033426;28;20492;-69
2021/09/29 07:05:41;;;;;;;19.50;7.03;;;;;;;15.99;100.00;101256.88;5033575;28;20439;-70
2021/09/29 07:08:08;;;;;;;18.23;6.87;;;;;;;16.02;100.00;101261.66;5033449;28;20469;-70
2021/09/29 07:10:36;;;;;;;20.50;7.00;;;;;;;16.05;100.00;101252.84;5033356;28;20853;-70
2021/09/29 07:13:02;;;;;;;23.20;6.80;;;;;;;16.03;100.00;101250.44;5033047;28;20459;-69
2021/09/29 07:15:29;;;;;;;23.93;7.63;;;;;;;16.02;100.00;101248.00;5033055;28;20483;-70
2021/09/29 07:17:59;;;;;;;15.97;6.87;;;;;;;16.00;100.00;101248.34;5033061;28;20940;-69
2021/09/29 07:20:27;;;;;;;22.47;6.80;;;;;;;16.00;100.00;101239.34;5033265;28;20446;-70
2021/09/29 07:22:54;;;;;;;18.30;7.27;;;;;;;16.01;100.00;101239.00;5032794;28;20517;-69
2021/09/29 07:25:21;;;;;;;22.07;7.80;;;;;;;15.96;100.00;101238.38;5033201;28;20478;-69
2021/09/29 07:27:52;;;;;;;17.67;6.40;;;;;;;16.00;100.00;101237.41;5033215;28;20435;-69
2021/09/29 07:30:18;;;;;;;21.97;7.20;;;;;;;16.05;100.00;101230.97;5032907;28;21047;-69
2021/09/29 07:32:46;;;;;;;34.13;8.40;;;;;;;16.06;100.00;101233.38;5033075;28;20550;-69
2021/09/29 07:35:13;;;;;;;27.37;8.27;;;;;;;16.09;100.00;101223.75;5033141;28;20447;-70
2021/09/29 07:37:40;;;;;;;17.50;8.37;;;;;;;16.11;100.00;101219.56;5032780;28;20895;-70
2021/09/29 07:40:08;;;;;;;28.77;8.77;;;;;;;16.15;100.00;101216.97;5034040;28;20443;-69
2021/09/29 07:42:35;;;;;;;21.63;7.10;;;;;;;16.24;100.00;101208.75;5036858;28;20459;-70
2021/09/29 07:45:04;;;;;;;19.23;6.63;;;;;;;16.31;100.00;101206.34;5037185;28;20455;-69
2021/09/29 07:47:30;;;;;;;27.97;8.87;;;;;;;16.32;100.00;101208.75;5037164;28;20454;-70
2021/09/29 07:49:57;;;;;;;24.23;8.27;;;;;;;16.35;100.00;101201.84;5036908;28;20457;-69
2021/09/29 07:52:24;;;;;;;26.63;8.70;;;;;;;16.33;100.00;101202.16;5037142;28;20821;-70
2021/09/29 07:54:51;;;;;;;32.27;10.00;;;;;;;16.36;100.00;101203.44;5036942;28;20447;-71
2021/09/29 07:57:17;;;;;;;23.10;9.03;;;;;;;16.40;100.00;101194.25;5036870;28;20493;-69
2021/09/29 07:59:44;;;;;;;20.90;7.83;;;;;;;16.50;100.00;101197.78;5036466;28;20967;-70
2021/09/29 08:02:12;;;;;;;27.67;8.87;;;;;;;16.50;100.00;101193.09;5036676;28;20455;-70
2021/09/29 08:04:38;;;;;;;31.23;10.43;;;;;;;16.57;100.00;101192.63;5036729;28;20535;-69
2021/09/29 08:07:05;;;;;;;20.43;8.53;;;;;;;16.60;100.00;101191.94;5036719;28;20453;-69
2021/09/29 08:09:32;;;;;;;23.73;8.63;;;;;;;16.59;100.00;101195.81;5036603;28;20446;-70
2021/09/29 08:11:58;;;;;;;28.43;10.23;;;;;;;16.57;100.00;101203.56;5036479;28;20548;-69
2021/09/29 08:14:24;;;;;;;26.13;8.67;;;;;;;16.59;100.00;101214.97;5036243;28;20955;-70
2021/09/29 08:16:51;;;;;;;25.57;8.43;;;;;;;16.51;100.00;101218.53;5036539;28;20446;-70
2021/09/29 08:19:19;;;;;;;29.70;10.53;;;;;;;16.38;100.00;101215.66;5036488;28;20439;-69
2021/09/29 08:21:47;;;;;;;24.73;8.97;;;;;;;16.31;100.00;101218.09;5035944;28;21010;-69
2021/09/29 08:24:16;;;;;;;25.57;8.87;;;;;;;16.21;100.00;101212.16;5036363;28;20446;-69
2021/09/29 08:26:58;;;;;;;19.60;8.07;;;;;;;16.16;100.00;101210.41;5036320;28;20447;-69
2021/09/29 08:29:47;;;;;;;18.23;7.23;;;;;;;16.11;100.00;101202.34;5036372;28;20455;-69
2021/09/29 08:32:18;;;;;;;20.70;7.57;;;;;;;16.08;100.00;101183.88;5036122;28;20536;-69
2021/09/29 08:34:52;;;;;;;18.60;7.17;;;;;;;16.03;100.00;101190.31;5036239;28;20419;-69
2021/09/29 08:37:33;;;;;;;18.03;7.40;;;;;;;16.00;100.00;101177.28;5036178;28;20431;-69
2021/09/29 08:40:08;;;;;;;24.17;7.53;;;;;;;15.99;100.00;101185.81;5036158;28;20419;-69
2021/09/29 08:42:41;;;;;;;17.87;6.30;;;;;;;16.01;100.00;101183.56;5035981;28;20462;-69
2021/09/29 08:45:13;;;;;;;12.83;5.40;;;;;;;16.00;100.00;101176.47;5036008;28;20434;-69
2021/09/29 08:47:45;;;;;;;32.07;6.90;;;;;;;16.03;100.00;101165.72;5035997;28;20431;-69
2021/09/29 08:50:20;;;;;;;17.10;6.80;;;;;;;16.10;100.00;101178.88;5036019;28;20465;-69
2021/09/29 08:52:57;;;;;;;18.20;6.13;;;;;;;16.07;100.00;101169.41;5034753;28;20881;-68
2021/09/29 09:14:56;;;;;;;13.60;5.90;;;;;;;15.99;100.00;101172.94;5035374;28;20423;-70
2021/09/29 09:17:30;;;;;;;12.60;6.07;;;;;;;15.99;100.00;101169.41;5035453;28;20520;-70
2021/09/29 09:20:19;;;;;;;17.10;7.40;;;;;;;16.01;100.00;101178.09;5035081;28;20936;-69
2021/09/29 09:22:52;;;;;;;14.13;6.73;;;;;;;15.99;100.00;101181.16;5034893;28;20471;-69
2021/09/29 09:25:30;;;;;;;17.63;7.47;;;;;;;15.97;100.00;101182.59;5034987;28;20796;-70
2021/09/29 09:27:57;;;;;;;15.83;6.47;;;;;;;15.96;100.00;101189.97;5035305;28;20805;-70
2021/09/29 09:30:29;;;;;;;17.80;8.30;;;;;;;15.95;100.00;101185.66;5035142;28;20447;-70
2021/09/29 09:32:57;;;;;;;15.80;6.80;;;;;;;15.97;100.00;101188.06;5035064;28;20470;-71
2021/09/29 09:35:27;;;;;;;21.50;7.00;;;;;;;15.96;100.00;101181.00;5035050;28;20447;-71
2021/09/29 09:37:57;;;;;;;15.07;6.90;;;;;;;15.97;100.00;101168.94;5034987;28;20474;-70
2021/09/29 09:40:26;;;;;;;17.10;7.50;;;;;;;15.97;100.00;101158.78;5035007;28;20435;-71
2021/09/29 09:42:56;;;;;;;9.30;5.00;;;;;;;15.92;100.00;101160.91;5034874;28;20551;-71
2021/09/29 09:45:30;;;;;;;15.77;5.80;;;;;;;15.91;100.00;101160.09;5035263;28;20497;-70
2021/09/29 09:47:57;;;;;;;15.43;5.30;;;;;;;15.91;100.00;101153.84;5034892;28;20423;-70
2021/09/29 09:50:28;;;;;;;11.40;6.67;;;;;;;15.96;100.00;101162.66;5033960;28;20459;-68
2021/09/29 09:52:57;;;;;;;13.30;5.70;;;;;;;16.01;100.00;101151.56;5034341;28;21010;-69
2021/09/29 09:55:25;;;;;;;11.37;4.97;;;;;;;16.07;100.00;101149.44;5034387;28;20470;-74
2021/09/29 09:57:53;;;;;;;14.50;5.47;;;;;;;16.19;100.00;101152.34;5034675;28;20447;-72
2021/09/29 10:00:24;;;;;;;22.60;7.70;;;;;;;16.22;100.00;101146.22;5034583;28;20443;-72
2021/09/29 10:02:54;;;;;;;12.90;6.53;;;;;;;16.29;100.00;101159.38;5034248;28;20455;-73
2021/09/29 10:05:22;;;;;;;16.33;7.27;;;;;;;16.28;100.00;101158.56;5033734;28;20443;-73
2021/09/29 10:07:49;;;;;;;18.27;7.23;;;;;;;16.29;100.00;101154.75;5034389;28;20447;-73
2021/09/29 10:10:24;;;;;;;17.70;5.90;;;;;;;16.29;100.00;101148.44;5034437;28;20443;-72
2021/09/29 10:24:03;;;;;;;15.50;6.03;;;;;;;16.51;100.00;101141.94;5033238;28;20419;-73
2021/09/29 10:26:30;;;;;;;9.73;4.67;;;;;;;16.54;100.00;101144.03;5033556;28;20441;-73
2021/09/29 10:29:05;;;;;;;10.87;5.13;;;;;;;16.48;100.00;101142.63;5032752;28;20463;-72
2021/09/29 10:31:57;;;;;;;11.07;5.27;;;;;;;16.52;100.00;101146.31;5033410;28;21030;-71
2021/09/29 10:34:34;;;;;;;14.87;7.40;;;;;;;16.51;100.00;101150.16;5034316;28;20530;-72
2021/09/29 10:37:25;;;;;;;18.43;6.70;;;;;;;16.51;100.00;101145.50;5034011;28;20573;-73
2021/09/29 10:42:54;;;;;;;15.43;7.57;;;;;;;16.62;100.00;101143.19;5032973;28;20438;-73
2021/09/29 10:45:51;;;;;;;14.03;6.10;;;;;;;16.58;100.00;101147.72;5033192;28;20434;-72
2021/09/29 10:48:30;;;;;;;19.27;7.10;;;;;;;16.57;100.00;101146.91;5033184;28;20618;-72
2021/09/29 10:51:16;;;;;;;24.83;6.87;;;;;;;16.57;100.00;101148.84;5032659;28;20896;-71
2021/09/29 11:11:24;;;;;;;14.57;8.00;;;;;;;16.22;100.00;101139.97;5021494;28;20535;-72
2021/09/29 11:30:33;;;;;;;10.57;4.60;;;;;;;16.15;100.00;101127.56;5032710;28;20917;-70
2021/09/29 11:33:04;;;;;;;18.40;5.93;;;;;;;16.18;100.00;101112.47;5032990;28;20487;-73
2021/09/29 11:35:43;;;;;;;10.70;5.20;;;;;;;16.25;100.00;101129.19;5033183;28;20425;-71
2021/09/29 12:09:51;;;;;;;11.40;6.17;;;;;;;16.42;100.00;101105.63;5010710;28;20495;-71
2021/09/29 12:12:22;;;;;;;11.33;5.47;;;;;;;16.40;100.00;101105.97;5010560;28;20577;-71
2021/09/29 12:14:49;;;;;;;10.73;4.30;;;;;;;16.44;100.00;101103.38;5022373;28;20458;-71
2021/09/29 12:17:23;;;;;;;11.53;5.30;;;;;;;16.52;100.00;101099.81;5032780;28;20454;-71
2021/09/29 12:19:56;;;;;;;10.20;4.70;;;;;;;16.56;100.00;101101.56;5032762;28;20428;-71
2021/09/29 12:22:26;;;;;;;15.90;6.07;;;;;;;16.73;100.00;101091.69;5032265;28;20514;-71
2021/09/29 12:24:59;;;;;;;19.00;5.87;;;;;;;17.00;100.00;101095.88;5032653;28;20419;-71
2021/09/29 12:27:33;;;;;;;12.53;5.67;;;;;;;17.01;100.00;101090.06;5033943;28;20485;-71
2021/09/29 12:30:04;;;;;;;22.23;7.00;;;;;;;17.00;100.00;101080.28;5036036;28;20932;-71
2021/09/29 12:32:46;;;;;;;14.43;7.13;;;;;;;16.96;100.00;101081.28;5036236;28;20489;-71
2021/09/29 12:35:33;;;;;;;11.83;5.40;;;;;;;16.90;100.00;101088.84;5036286;28;20431;-71
2021/09/29 12:38:03;;;;;;;15.80;6.33;;;;;;;16.80;100.00;101097.44;5036202;28;20463;-71
2021/09/29 12:40:32;;;;;;;14.70;6.30;;;;;;;16.80;100.00;101087.31;5036193;28;20431;-71
2021/09/29 12:43:00;;;;;;;15.20;7.10;;;;;;;16.77;100.00;101087.16;5035694;28;20466;-71
2021/09/29 12:45:29;;;;;;;17.97;7.93;;;;;;;16.77;100.00;101092.63;5036047;28;20442;-71
2021/09/29 12:47:57;;;;;;;13.30;6.83;;;;;;;16.85;100.00;101091.78;5035939;28;20538;-71
2021/09/29 12:50:28;;;;;;;13.77;7.57;;;;;;;16.93;100.00;101090.94;5036001;28;20443;-72
2021/09/29 12:52:59;;;;;;;14.83;6.37;;;;;;;16.94;100.00;101089.00;5035801;28;20837;-71
2021/09/29 12:55:34;;;;;;;11.97;5.80;;;;;;;16.96;100.00;101093.00;5035924;28;20431;-72
2021/09/29 12:58:00;;;;;;;11.47;5.80;;;;;;;16.91;100.00;101101.41;5035734;28;20453;-71